createdAt,value
2023-04-01T00:01:53.728Z,7.06
2023-04-01T00:04:24.439Z,7.04
2023-04-01T00:06:53.966Z,7.07
2023-04-01T00:09:23.206Z,7.05
2023-04-01T00:11:52.551Z,7.00
2023-04-01T00:14:21.779Z,7.01
2023-04-01T00:16:51.227Z,7.02
2023-04-01T00:19:20.491Z,6.92
2023-04-01T00:21:51.250Z,6.94
2023-04-01T00:24:20.432Z,6.94
2023-04-01T00:26:49.999Z,6.94
2023-04-01T00:29:19.185Z,6.89
2023-04-01T00:31:49.388Z,6.89
2023-04-01T00:34:18.544Z,6.88
2023-04-01T00:36:47.967Z,6.85
2023-04-01T00:39:18.786Z,6.83
2023-04-01T00:41:48.285Z,6.73
2023-04-01T00:44:21.781Z,6.62
2023-04-01T00:46:51.617Z,6.64
2023-04-01T00:49:24.634Z,6.61
2023-04-01T00:51:57.298Z,6.65
2023-04-01T00:54:29.432Z,6.59
2023-04-01T00:57:02.816Z,6.52
2023-04-01T00:59:36.027Z,6.45
2023-04-01T01:02:07.993Z,6.49
2023-04-01T01:04:39.050Z,6.52
2023-04-01T01:07:20.197Z,6.44
2023-04-01T01:09:58.862Z,6.46
2023-04-01T01:12:34.778Z,6.39
2023-04-01T01:15:12.064Z,6.34
2023-04-01T01:17:51.304Z,6.32
2023-04-01T01:20:51.689Z,6.28
2023-04-01T01:24:04.248Z,6.25
2023-04-01T01:26:51.458Z,6.29
2023-04-01T01:29:44.851Z,6.27
2023-04-01T01:32:28.475Z,6.28
2023-04-01T01:35:11.340Z,6.27
2023-04-01T01:37:43.198Z,6.25
2023-04-01T01:40:15.520Z,6.23
2023-04-01T01:42:49.418Z,6.24
2023-04-01T01:45:23.764Z,6.23
2023-04-01T01:47:54.483Z,6.24
2023-04-01T01:50:26.242Z,6.24
2023-04-01T01:53:04.732Z,6.22
2023-04-01T01:55:36.635Z,6.21
2023-04-01T01:58:14.219Z,6.18
2023-04-01T02:00:49.455Z,6.22
2023-04-01T02:03:19.963Z,6.20
2023-04-01T02:05:53.124Z,6.17
2023-04-01T02:08:27.570Z,6.22
2023-04-01T02:11:01.745Z,6.20
2023-04-01T02:13:42.552Z,6.22
2023-04-01T02:16:17.999Z,6.22
2023-04-01T02:18:50.427Z,6.19
2023-04-01T02:21:25.504Z,6.21
2023-04-01T02:23:58.803Z,6.18
2023-04-01T02:26:29.078Z,6.16
2023-04-01T02:29:00.456Z,6.17
2023-04-01T02:31:30.841Z,6.21
2023-04-01T02:34:01.007Z,6.23
2023-04-01T02:36:32.213Z,6.25
2023-04-01T02:39:03.508Z,6.22
2023-04-01T02:41:33.023Z,6.15
2023-04-01T02:44:02.162Z,6.16
2023-04-01T02:46:31.556Z,6.21
2023-04-01T02:49:01.099Z,6.21
2023-04-01T02:51:32.679Z,6.20
2023-04-01T02:54:02.419Z,6.21
2023-04-01T02:56:31.803Z,6.19
2023-04-01T02:59:01.028Z,6.15
2023-04-01T03:01:30.746Z,6.15
2023-04-01T03:04:00.019Z,6.15
2023-04-01T03:06:31.361Z,6.10
2023-04-01T03:09:00.609Z,6.07
2023-04-01T03:11:30.036Z,6.11
2023-04-01T03:13:59.226Z,6.07
2023-04-01T03:16:28.604Z,6.03
2023-04-01T03:18:59.988Z,6.08
2023-04-01T03:21:31.013Z,6.03
2023-04-01T03:24:00.792Z,6.03
2023-04-01T03:26:31.763Z,6.00
2023-04-01T03:29:01.614Z,5.98
2023-04-01T03:31:31.155Z,5.95
2023-04-01T03:34:00.759Z,5.93
2023-04-01T03:36:32.103Z,5.95
2023-04-01T03:39:01.410Z,5.96
2023-04-01T03:41:39.606Z,5.94
2023-04-01T03:44:08.975Z,5.94
2023-04-01T03:46:38.516Z,5.91
2023-04-01T03:49:12.740Z,5.87
2023-04-01T03:51:45.111Z,5.86
2023-04-01T03:54:14.271Z,5.84
2023-04-01T03:56:43.700Z,5.81
2023-04-01T03:59:14.655Z,5.79
2023-04-01T04:01:44.342Z,5.81
2023-04-01T04:04:15.711Z,5.77
2023-04-01T04:06:47.037Z,5.75
2023-04-01T04:09:16.323Z,5.73
2023-04-01T04:11:45.651Z,5.78
2023-04-01T04:14:14.828Z,5.77
2023-04-01T04:16:44.514Z,5.74
2023-04-01T04:19:13.618Z,5.74
2023-04-01T04:21:43.580Z,5.73
2023-04-01T04:24:14.281Z,5.73
2023-04-01T04:27:00.819Z,5.68
2023-04-01T04:29:29.932Z,5.66
2023-04-01T04:32:03.232Z,5.72
2023-04-01T04:34:32.548Z,5.73
2023-04-01T04:37:02.038Z,5.69
2023-04-01T04:39:36.638Z,5.72
2023-04-01T04:42:07.509Z,5.71
2023-04-01T04:44:36.634Z,5.67
2023-04-01T04:47:06.127Z,5.66
2023-04-01T04:49:35.315Z,5.69
2023-04-01T04:52:09.307Z,5.70
2023-04-01T04:54:39.970Z,5.73
2023-04-01T04:57:09.686Z,5.72
2023-04-01T04:59:46.227Z,5.69
2023-04-01T05:02:20.804Z,5.68
2023-04-01T05:04:50.341Z,5.68
2023-04-01T05:07:20.011Z,5.71
2023-04-01T05:09:50.710Z,5.70
2023-04-01T05:12:20.478Z,5.71
2023-04-01T05:14:58.719Z,5.71
2023-04-01T05:17:28.365Z,5.72
2023-04-01T05:19:57.643Z,5.69
2023-04-01T05:22:27.587Z,5.68
2023-04-01T05:24:58.065Z,5.67
2023-04-01T05:27:27.909Z,5.67
2023-04-01T05:29:57.432Z,5.72
2023-04-01T05:32:44.238Z,5.77
2023-04-01T05:35:13.901Z,5.75
2023-04-01T05:37:43.271Z,5.78
2023-04-01T05:40:14.423Z,5.76
2023-04-01T05:42:43.849Z,5.75
2023-04-01T05:45:16.464Z,5.80
2023-04-01T05:48:12.101Z,5.77
2023-04-01T05:50:43.908Z,5.83
2023-04-01T05:53:14.451Z,5.87
2023-04-01T05:55:47.351Z,5.88
2023-04-01T05:58:17.244Z,5.87
2023-04-01T06:00:58.955Z,5.85
2023-04-01T06:03:32.082Z,5.84
2023-04-01T06:06:02.175Z,5.86
2023-04-01T06:08:33.832Z,5.89
2023-04-01T06:11:18.990Z,5.90
2023-04-01T06:14:20.408Z,5.91
2023-04-01T06:17:09.756Z,5.93
2023-04-01T06:19:49.025Z,5.94
2023-04-01T06:22:41.565Z,5.91
2023-04-01T06:25:46.684Z,5.87
2023-04-01T06:28:52.255Z,5.84
2023-04-01T06:31:36.626Z,5.83
2023-04-01T06:34:26.672Z,5.85
2023-04-01T06:37:46.055Z,5.89
2023-04-01T06:40:44.030Z,5.87
2023-04-01T06:43:24.260Z,5.92
2023-04-01T06:46:21.951Z,5.92
2023-04-01T06:49:41.557Z,5.84
2023-04-01T06:52:40.188Z,5.80
2023-04-01T06:55:37.018Z,5.83
2023-04-01T06:58:27.623Z,5.87
2023-04-01T07:01:01.403Z,5.81
2023-04-01T07:03:37.184Z,5.81
2023-04-01T07:06:12.710Z,5.78
2023-04-01T07:08:53.466Z,5.81
2023-04-01T07:11:28.888Z,5.92
2023-04-01T07:14:27.981Z,5.90
2023-04-01T07:17:04.876Z,5.88
2023-04-01T07:19:41.910Z,5.88
2023-04-01T07:22:23.810Z,5.90
2023-04-01T07:25:16.650Z,5.89
2023-04-01T07:27:50.443Z,5.94
2023-04-01T07:30:22.029Z,5.97
2023-04-01T07:32:58.362Z,6.00
2023-04-01T07:35:36.027Z,6.04
2023-04-01T07:38:16.665Z,6.03
2023-04-01T07:40:56.956Z,6.01
2023-04-01T07:43:54.011Z,6.05
2023-04-01T07:46:51.687Z,6.10
2023-04-01T07:49:30.579Z,6.08
2023-04-01T07:52:06.895Z,6.14
2023-04-01T07:54:46.533Z,6.19
2023-04-01T07:57:20.108Z,6.17
2023-04-01T08:00:01.842Z,6.19
2023-04-01T08:02:59.058Z,6.15
2023-04-01T08:05:32.842Z,6.25
2023-04-01T08:08:17.417Z,6.22
2023-04-01T08:11:15.725Z,6.19
2023-04-01T08:14:13.546Z,6.19
2023-04-01T08:17:10.515Z,6.20
2023-04-01T08:19:58.479Z,6.22
2023-04-01T08:22:37.240Z,6.22
2023-04-01T08:25:22.567Z,6.20
2023-04-01T08:27:55.878Z,6.19
2023-04-01T08:30:28.153Z,6.17
2023-04-01T08:33:04.143Z,6.16
2023-04-01T08:35:40.079Z,6.20
2023-04-01T08:38:18.295Z,6.23
2023-04-01T08:41:15.616Z,6.14
2023-04-01T08:44:32.456Z,6.11
2023-04-01T08:47:51.590Z,6.09
2023-04-01T08:50:45.071Z,6.07
2023-04-01T08:53:53.669Z,6.07
2023-04-01T08:56:32.842Z,6.05
2023-04-01T08:59:37.631Z,6.07
2023-04-01T09:02:48.175Z,6.03
2023-04-01T09:05:41.693Z,6.00
2023-04-01T09:08:37.280Z,6.01
2023-04-01T09:11:19.188Z,6.02
2023-04-01T09:14:44.413Z,6.01
2023-04-01T09:18:03.553Z,6.06
2023-04-01T09:20:50.030Z,6.06
2023-04-01T09:23:34.212Z,6.04
2023-04-01T09:26:24.031Z,6.07
2023-04-01T09:29:04.389Z,6.07
2023-04-01T09:31:58.229Z,6.08
2023-04-01T09:35:04.968Z,6.07
2023-04-01T09:37:43.805Z,6.08
2023-04-01T09:40:20.537Z,6.06
2023-04-01T09:43:17.202Z,6.07
2023-04-01T09:45:54.706Z,6.04
2023-04-01T09:48:47.782Z,5.97
2023-04-01T09:51:31.701Z,6.00
2023-04-01T09:54:21.219Z,6.01
2023-04-01T09:57:19.945Z,6.02
2023-04-01T10:00:34.714Z,6.08
2023-04-01T10:03:45.553Z,6.07
2023-04-01T10:06:58.859Z,6.02
2023-04-01T10:10:05.994Z,6.03
2023-04-01T10:13:08.090Z,6.04
2023-04-01T10:16:13.564Z,6.07
2023-04-01T10:19:17.749Z,5.95
2023-04-01T10:22:34.234Z,6.04
2023-04-01T10:25:50.065Z,6.01
2023-04-01T10:28:46.782Z,5.95
2023-04-01T10:32:26.772Z,6.00
2023-04-01T10:35:31.717Z,5.91
2023-04-01T10:38:27.923Z,5.95
2023-04-01T10:41:56.009Z,5.96
2023-04-01T10:45:24.568Z,5.91
2023-04-01T10:48:20.424Z,5.90
2023-04-01T10:51:27.456Z,5.91
2023-04-01T10:54:38.672Z,5.88
2023-04-01T10:57:50.199Z,5.94
2023-04-01T11:01:08.244Z,5.86
2023-04-01T11:04:44.646Z,5.92
2023-04-01T11:08:06.036Z,5.96
2023-04-01T11:11:12.199Z,5.95
2023-04-01T11:14:21.062Z,5.91
2023-04-01T11:17:24.718Z,5.92
2023-04-01T11:20:27.069Z,5.90
2023-04-01T11:23:25.029Z,5.92
2023-04-01T11:26:07.116Z,5.93
2023-04-01T11:29:33.950Z,5.95
2023-04-01T11:32:29.489Z,5.99
2023-04-01T11:35:12.209Z,5.94
2023-04-01T11:37:52.591Z,5.88
2023-04-01T11:40:47.391Z,5.93
2023-04-01T11:43:44.552Z,5.95
2023-04-01T11:46:44.686Z,5.91
2023-04-01T11:49:31.859Z,5.96
2023-04-01T11:52:33.524Z,5.88
2023-04-01T11:55:30.253Z,5.85
2023-04-01T11:58:24.096Z,5.86
2023-04-01T12:01:16.401Z,5.94
2023-04-01T12:04:08.584Z,5.92
2023-04-01T12:06:47.485Z,5.94
2023-04-01T12:09:26.278Z,5.95
2023-04-01T12:12:13.138Z,5.97
2023-04-01T12:14:47.404Z,6.00
2023-04-01T12:17:29.890Z,5.97
2023-04-01T12:20:22.570Z,5.98
2023-04-01T12:23:03.383Z,5.92
2023-04-01T12:26:12.414Z,5.94
2023-04-01T12:28:50.931Z,5.91
2023-04-01T12:31:33.211Z,6.01
2023-04-01T12:34:31.426Z,6.00
2023-04-01T12:37:11.588Z,5.97
2023-04-01T12:40:15.956Z,5.93
2023-04-01T12:43:01.792Z,5.92
2023-04-01T12:45:33.554Z,5.92
2023-04-01T12:48:44.380Z,5.90
2023-04-01T12:51:45.855Z,5.86
2023-04-01T12:54:47.757Z,5.83
2023-04-01T12:57:42.918Z,5.78
2023-04-01T13:00:27.532Z,5.76
2023-04-01T13:03:13.054Z,5.72
2023-04-01T13:06:06.780Z,5.73
2023-04-01T13:08:46.016Z,5.64
2023-04-01T13:11:27.123Z,5.66
2023-04-01T13:14:31.211Z,5.73
2023-04-01T13:17:12.296Z,5.66
2023-04-01T13:20:01.778Z,5.59
2023-04-01T13:22:55.703Z,5.56
2023-04-01T13:25:38.640Z,5.53
2023-04-01T13:28:17.351Z,5.52
2023-04-01T13:30:52.197Z,5.50
2023-04-01T13:33:30.817Z,5.55
2023-04-01T13:36:13.103Z,5.46
2023-04-01T13:38:59.191Z,5.42
2023-04-01T13:41:46.030Z,5.40
2023-04-01T13:44:20.343Z,5.39
2023-04-01T13:47:16.450Z,5.40
2023-04-01T13:50:25.866Z,5.37
2023-04-01T13:53:33.801Z,5.31
2023-04-01T13:56:18.697Z,5.28
2023-04-01T13:59:25.340Z,5.28
2023-04-01T14:02:16.395Z,5.15
2023-04-01T14:05:08.723Z,5.12
2023-04-01T14:07:52.415Z,5.05
2023-04-01T14:10:30.375Z,5.06
2023-04-01T14:13:06.622Z,5.08
2023-04-01T14:15:59.423Z,5.07
2023-04-01T14:19:00.697Z,5.04
2023-04-01T14:21:40.556Z,5.05
2023-04-01T14:24:34.041Z,5.07
2023-04-01T14:27:40.124Z,5.06
2023-04-01T14:30:42.384Z,5.08
2023-04-01T14:33:29.151Z,4.99
2023-04-01T14:36:22.263Z,4.94
2023-04-01T14:39:02.886Z,4.90
2023-04-01T14:41:48.244Z,4.88
2023-04-01T14:44:50.749Z,4.92
2023-04-01T14:47:49.831Z,4.80
2023-04-01T14:50:23.429Z,4.82
2023-04-01T14:53:00.045Z,4.86
2023-04-01T14:55:35.688Z,4.83
2023-04-01T14:58:12.896Z,4.90
2023-04-01T15:00:52.853Z,4.90
2023-04-01T15:03:28.378Z,4.84
2023-04-01T15:06:16.538Z,4.77
2023-04-01T15:08:53.655Z,4.80
2023-04-01T15:11:34.988Z,4.85
2023-04-01T15:14:39.388Z,4.81
2023-04-01T15:17:26.805Z,4.80
2023-04-01T15:20:16.101Z,4.78
2023-04-01T15:23:05.017Z,4.74
2023-04-01T15:25:48.433Z,4.65
2023-04-01T15:28:28.136Z,4.69
2023-04-01T15:31:04.253Z,4.73
2023-04-01T15:33:51.411Z,4.76
2023-04-01T15:36:33.688Z,4.74
2023-04-01T15:39:13.023Z,4.70
2023-04-01T15:41:53.208Z,4.63
2023-04-01T15:44:55.929Z,4.58
2023-04-01T15:47:46.547Z,4.51
2023-04-01T15:50:42.934Z,4.52
2023-04-01T15:53:55.115Z,4.50
2023-04-01T15:56:46.686Z,4.49
2023-04-01T15:59:36.096Z,4.47
2023-04-01T16:02:19.858Z,4.49
2023-04-01T16:05:01.248Z,4.48
2023-04-01T16:07:47.991Z,4.45
2023-04-01T16:10:38.233Z,4.40
2023-04-01T16:13:53.409Z,4.38
2023-04-01T16:16:34.712Z,4.37
2023-04-01T16:19:35.981Z,4.42
2023-04-01T16:22:08.103Z,4.35
2023-04-01T16:24:44.286Z,4.34
2023-04-01T16:27:19.165Z,4.32
2023-04-01T16:29:55.439Z,4.30
2023-04-01T16:32:43.142Z,4.31
2023-04-01T16:35:37.364Z,4.24
2023-04-01T16:38:13.687Z,4.21
2023-04-01T16:40:54.856Z,4.23
2023-04-01T16:43:31.398Z,4.25
2023-04-01T16:46:34.103Z,4.25
2023-04-01T16:49:36.005Z,4.26
2023-04-01T16:52:18.041Z,4.22
2023-04-01T16:54:59.151Z,4.17
2023-04-01T16:57:33.638Z,4.19
2023-04-01T17:00:17.449Z,4.22
2023-04-01T17:02:54.935Z,4.20
2023-04-01T17:05:41.708Z,4.13
2023-04-01T17:11:22.464Z,4.14
2023-04-01T17:14:04.141Z,4.11
2023-04-01T17:16:57.803Z,4.12
2023-04-01T17:19:46.048Z,4.13
2023-04-01T17:22:28.207Z,4.11
2023-04-01T17:25:13.139Z,4.06
2023-04-01T17:27:55.527Z,4.08
2023-04-01T17:30:46.999Z,4.10
2023-04-01T17:33:49.363Z,4.05
2023-04-01T17:36:43.178Z,4.03
2023-04-01T17:39:37.872Z,4.03
2023-04-01T17:42:12.125Z,4.04
2023-04-01T17:44:56.322Z,4.04
2023-04-01T17:47:48.809Z,3.98
2023-04-01T17:50:30.388Z,3.98
2023-04-01T17:53:17.273Z,3.94
2023-04-01T17:55:57.620Z,3.90
2023-04-01T17:58:33.198Z,3.90
2023-04-01T18:01:16.462Z,3.95
2023-04-01T18:04:03.614Z,3.94
2023-04-01T18:06:39.768Z,3.97
2023-04-01T18:09:27.853Z,3.92
2023-04-01T18:12:07.416Z,3.90
2023-04-01T18:15:14.131Z,3.91
2023-04-01T18:17:59.421Z,3.95
2023-04-01T18:20:39.821Z,3.91
2023-04-01T18:23:26.986Z,3.91
2023-04-01T18:26:07.996Z,3.89
2023-04-01T18:28:41.094Z,3.92
2023-04-01T18:31:20.196Z,3.92
2023-04-01T18:33:59.090Z,3.89
2023-04-01T18:36:42.510Z,3.91
2023-04-01T18:39:17.814Z,3.90
2023-04-01T18:42:07.516Z,3.89
2023-04-01T18:44:48.845Z,3.94
2023-04-01T18:47:29.855Z,4.00
2023-04-01T18:50:18.397Z,3.91
2023-04-01T18:52:48.744Z,3.93
2023-04-01T18:55:33.201Z,3.88
2023-04-01T18:58:24.584Z,3.85
2023-04-01T19:01:21.799Z,3.84
2023-04-01T19:04:02.543Z,3.83
2023-04-01T19:06:37.501Z,3.88
2023-04-01T19:09:23.746Z,3.90
2023-04-01T19:12:23.070Z,3.86
2023-04-01T19:15:22.853Z,3.89
2023-04-01T19:18:01.972Z,3.88
2023-04-01T19:20:43.566Z,3.91
2023-04-01T19:23:44.516Z,3.86
2023-04-01T19:26:18.602Z,3.89
2023-04-01T19:28:57.354Z,3.92
2023-04-01T19:31:51.713Z,3.93
2023-04-01T19:34:35.036Z,3.91
2023-04-01T19:37:11.245Z,3.90
2023-04-01T19:39:51.654Z,3.88
2023-04-01T19:42:31.427Z,3.91
2023-04-01T19:45:17.210Z,3.86
2023-04-01T19:48:01.294Z,3.89
2023-04-01T19:50:38.851Z,3.84
2023-04-01T19:53:19.670Z,3.83
2023-04-01T19:55:55.965Z,3.85
2023-04-01T19:58:33.805Z,3.87
2023-04-01T20:01:05.990Z,3.91
2023-04-01T20:03:47.336Z,3.90
2023-04-01T20:06:27.944Z,3.88
2023-04-01T20:09:13.119Z,3.87
2023-04-01T20:11:52.984Z,3.83
2023-04-01T20:14:27.825Z,3.80
2023-04-01T20:17:04.520Z,3.82
2023-04-01T20:19:41.290Z,3.81
2023-04-01T20:22:32.098Z,3.81
2023-04-01T20:25:09.054Z,3.78
2023-04-01T20:27:44.190Z,3.87
2023-04-01T20:31:01.755Z,3.83
2023-04-01T20:33:58.717Z,3.78
2023-04-01T20:36:38.608Z,3.74
2023-04-01T20:39:32.249Z,3.79
2023-04-01T20:42:38.996Z,3.77
2023-04-01T20:45:30.541Z,3.72
2023-04-01T20:48:23.992Z,3.74
2023-04-01T20:50:56.717Z,3.73
2023-04-01T20:53:39.689Z,3.71
2023-04-01T20:56:43.726Z,3.73
2023-04-01T20:59:30.847Z,3.68
2023-04-01T21:02:14.903Z,3.72
2023-04-01T21:04:58.340Z,3.68
2023-04-01T21:07:38.356Z,3.69
2023-04-01T21:10:26.893Z,3.66
2023-04-01T21:13:04.425Z,3.65
2023-04-01T21:15:50.589Z,3.59
2023-04-01T21:18:37.548Z,3.59
2023-04-01T21:21:39.203Z,3.59
2023-04-01T21:24:42.241Z,3.61
2023-04-01T21:27:24.699Z,3.56
2023-04-01T21:30:09.872Z,3.57
2023-04-01T21:33:00.945Z,3.55
2023-04-01T21:35:41.219Z,3.50
2023-04-01T21:38:31.518Z,3.55
2023-04-01T21:41:32.758Z,3.58
2023-04-01T21:44:37.481Z,3.50
2023-04-01T21:47:42.537Z,3.51
2023-04-01T21:50:45.126Z,3.45
2023-04-01T21:53:46.283Z,3.52
2023-04-01T21:56:51.690Z,3.44
2023-04-01T21:59:52.946Z,3.44
2023-04-01T22:02:46.512Z,3.41
2023-04-01T22:05:19.631Z,3.38
2023-04-01T22:07:57.926Z,3.43
2023-04-01T22:10:36.170Z,3.39
2023-04-01T22:13:14.644Z,3.37
2023-04-01T22:16:03.476Z,3.42
2023-04-01T22:18:39.104Z,3.43
2023-04-01T22:21:14.767Z,3.43
2023-04-01T22:23:54.868Z,3.43
2023-04-01T22:26:32.677Z,3.38
2023-04-01T22:29:09.429Z,3.36
2023-04-01T22:31:45.303Z,3.44
2023-04-01T22:34:22.634Z,3.41
2023-04-01T22:37:02.278Z,3.41
2023-04-01T22:40:03.634Z,3.41
2023-04-01T22:42:44.472Z,3.37
2023-04-01T22:45:44.415Z,3.33
2023-04-01T22:48:22.874Z,3.30
2023-04-01T22:50:59.981Z,3.34
2023-04-01T22:53:44.240Z,3.34
2023-04-01T22:56:21.671Z,3.31
2023-04-01T22:58:57.319Z,3.30
2023-04-01T23:01:31.824Z,3.29
2023-04-01T23:04:05.833Z,3.31
2023-04-01T23:06:40.153Z,3.29
2023-04-01T23:09:13.739Z,3.32
2023-04-01T23:11:50.130Z,3.34
2023-04-01T23:14:44.630Z,3.27
2023-04-01T23:17:38.901Z,3.25
2023-04-01T23:20:24.917Z,3.23
2023-04-01T23:23:12.449Z,3.26
2023-04-01T23:25:50.794Z,3.27
2023-04-01T23:28:41.485Z,3.23
2023-04-01T23:31:36.902Z,3.24
2023-04-01T23:34:21.639Z,3.21
2023-04-01T23:36:54.104Z,3.16
2023-04-01T23:39:29.175Z,3.15
2023-04-01T23:42:03.011Z,3.16
2023-04-01T23:44:35.201Z,3.20
2023-04-01T23:47:06.938Z,3.19
2023-04-01T23:49:40.397Z,3.17
2023-04-01T23:52:15.835Z,3.20
2023-04-01T23:54:50.390Z,3.16
2023-04-01T23:57:24.202Z,3.14
